Time;durP1;ratioP1;P1;durP2;ratioP2;P2;SDS_P1;SDS_P2;PMS_P1;PMS_P2;Temp;Humidity;BMP_temperature;BMP_pressure;BME280_temperature;BME280_humidity;BME280_pressure;Samples;Min_cycle;Max_cycle;Signal;HPM_P1;HPM_P2
2022/04/20 00:00:28;;;;;;;8.98;4.65;;;;;;;9.73;54.73;101527.78;5039842;28;20548;-65
2022/04/20 00:02:54;;;;;;;10.88;3.97;;;;;;;9.66;54.80;101529.81;5040124;28;20033;-67
2022/04/20 00:05:19;;;;;;;8.40;3.55;;;;;;;9.65;54.86;101528.09;5038488;28;20044;-65
2022/04/20 00:07:45;;;;;;;9.23;4.18;;;;;;;9.65;54.66;101522.84;5039726;28;20033;-65
2022/04/20 00:10:10;;;;;;;8.38;4.38;;;;;;;9.69;54.73;101532.31;5037587;28;20048;-65
2022/04/20 00:12:36;;;;;;;6.95;4.05;;;;;;;9.72;54.68;101532.19;5036396;28;20111;-66
2022/04/20 00:15:01;;;;;;;11.32;4.53;;;;;;;9.73;54.74;101533.03;5035533;28;20504;-66
2022/04/20 00:17:27;;;;;;;6.80;4.07;;;;;;;9.73;54.67;101530.41;5029774;28;20041;-65
2022/04/20 00:19:52;;;;;;;9.05;4.47;;;;;;;9.73;54.87;101528.66;5039520;28;20124;-64
2022/04/20 00:22:17;;;;;;;6.85;3.95;;;;;;;9.75;54.61;101534.72;5038886;28;20145;-65
2022/04/20 00:24:43;;;;;;;8.38;4.20;;;;;;;9.76;54.71;101533.75;5041935;28;20025;-66
2022/04/20 00:27:08;;;;;;;10.13;4.65;;;;;;;9.77;54.84;101540.72;5038522;28;20037;-66
2022/04/20 00:29:35;;;;;;;7.55;4.30;;;;;;;9.76;54.86;101532.91;5036393;28;20033;-66
2022/04/20 00:32:00;;;;;;;7.40;4.15;;;;;;;9.75;55.00;101532.06;5039562;28;20115;-66
2022/04/20 00:34:26;;;;;;;9.80;4.82;;;;;;;9.75;55.08;101533.84;5032973;28;20037;-65
2022/04/20 00:36:53;;;;;;;7.80;4.30;;;;;;;9.73;54.84;101525.16;5037777;28;20037;-64
2022/04/20 00:39:20;;;;;;;10.60;4.63;;;;;;;9.70;55.24;101528.78;5038896;28;20025;-66
2022/04/20 00:41:45;;;;;;;8.95;4.22;;;;;;;9.68;55.25;101527.97;5038689;28;20393;-65
2022/04/20 00:44:11;;;;;;;10.18;4.55;;;;;;;9.66;55.48;101527.19;5035070;28;20500;-66
2022/04/20 00:46:38;;;;;;;10.57;4.82;;;;;;;9.66;55.80;101529.81;5038036;28;20029;-64
2022/04/20 00:49:05;;;;;;;7.10;4.10;;;;;;;9.67;55.94;101534.16;5043323;28;20043;-65
2022/04/20 00:51:31;;;;;;;7.82;4.18;;;;;;;9.64;55.71;101542.16;5045049;28;20104;-65
2022/04/20 00:54:01;;;;;;;7.28;4.25;;;;;;;9.62;56.00;101541.34;5045608;28;20060;-64
2022/04/20 00:56:30;;;;;;;7.32;4.15;;;;;;;9.59;56.32;101544.97;5045429;28;20041;-65
2022/04/20 00:58:57;;;;;;;6.80;4.60;;;;;;;9.59;56.62;101546.75;5043294;28;20040;-65
2022/04/20 01:01:23;;;;;;;9.18;4.50;;;;;;;9.59;56.81;101546.75;5042802;28;20495;-66
2022/04/20 01:03:49;;;;;;;8.35;4.30;;;;;;;9.60;56.97;101543.22;5045101;28;20033;-65
2022/04/20 01:06:15;;;;;;;6.95;4.47;;;;;;;9.59;57.06;101552.84;5045346;28;20033;-66
2022/04/20 01:08:40;;;;;;;11.15;4.80;;;;;;;9.60;57.17;101553.72;5042113;28;20075;-65
2022/04/20 01:11:06;;;;;;;9.40;4.57;;;;;;;9.54;57.40;101553.97;5045304;28;20094;-65
2022/04/20 01:13:31;;;;;;;7.53;3.95;;;;;;;9.48;57.78;101555.06;5042960;28;20511;-65
2022/04/20 01:15:57;;;;;;;9.75;4.38;;;;;;;9.41;57.77;101553.59;5043383;28;20385;-66
2022/04/20 01:18:22;;;;;;;9.88;4.70;;;;;;;9.39;58.13;101553.66;5044971;28;20474;-65
2022/04/20 01:20:48;;;;;;;8.40;4.50;;;;;;;9.38;58.08;101549.31;5047153;28;20036;-65
2022/04/20 01:23:13;;;;;;;7.22;4.32;;;;;;;9.39;58.50;101551.03;5045931;28;20043;-65
2022/04/20 01:25:39;;;;;;;7.25;4.35;;;;;;;9.44;58.62;101538.59;5043125;28;20032;-65
2022/04/20 01:28:05;;;;;;;8.77;4.70;;;;;;;9.46;58.76;101552.47;5045350;28;20033;-65
2022/04/20 01:30:32;;;;;;;10.02;4.60;;;;;;;9.46;59.08;101549.84;5044910;28;20144;-65
2022/04/20 01:32:57;;;;;;;9.00;4.18;;;;;;;9.44;59.26;101537.72;5046603;28;20020;-66
2022/04/20 01:35:23;;;;;;;6.90;4.15;;;;;;;9.38;59.47;101537.94;5044803;28;20021;-65
2022/04/20 01:37:50;;;;;;;8.52;4.43;;;;;;;9.36;59.61;101545.91;5048606;28;20075;-65
2022/04/20 01:40:15;;;;;;;5.32;4.05;;;;;;;9.37;59.61;101537.09;5043229;28;20416;-65
2022/04/20 01:42:41;;;;;;;8.95;4.45;;;;;;;9.42;59.63;101537.78;5043646;28;20150;-65
2022/04/20 01:45:06;;;;;;;7.38;4.57;;;;;;;9.48;59.86;101534.06;5043375;28;20040;-65
2022/04/20 01:47:32;;;;;;;6.45;4.35;;;;;;;9.50;59.68;101533.97;5044147;28;20052;-65
2022/04/20 01:49:57;;;;;;;6.43;4.55;;;;;;;9.48;60.03;101538.44;5045266;28;20106;-65
2022/04/20 01:52:23;;;;;;;7.68;4.63;;;;;;;9.42;60.18;101524.66;5045469;28;20032;-64
2022/04/20 01:54:48;;;;;;;7.20;4.75;;;;;;;9.39;60.33;101530.03;5042662;28;20075;-65
2022/04/20 01:57:14;;;;;;;7.55;4.97;;;;;;;9.39;60.63;101537.03;5044862;28;20045;-65
2022/04/20 01:59:40;;;;;;;5.88;4.20;;;;;;;9.37;60.58;101534.47;5044112;28;20347;-65
2022/04/20 02:04:49;;;;;;;8.30;4.80;;;;;;;9.35;60.87;101538.94;5039356;28;20115;-65
2022/04/20 02:07:15;;;;;;;9.15;4.75;;;;;;;9.36;60.77;101530.13;5043385;28;20144;-66
2022/04/20 02:09:40;;;;;;;9.85;4.57;;;;;;;9.42;60.97;101534.28;5041867;28;20040;-65
2022/04/20 02:12:07;;;;;;;5.68;4.40;;;;;;;9.51;60.68;101519.94;5041376;28;20833;-66
2022/04/20 02:14:33;;;;;;;5.80;4.43;;;;;;;9.54;60.65;101527.69;5041163;28;20439;-66
2022/04/20 02:16:58;;;;;;;6.45;4.70;;;;;;;9.53;60.47;101525.97;5041741;28;20021;-64
2022/04/20 02:19:24;;;;;;;6.93;4.43;;;;;;;9.53;60.56;101523.34;5041463;28;20033;-65
2022/04/20 02:21:49;;;;;;;6.47;4.45;;;;;;;9.54;60.48;101530.31;5038315;28;20036;-65
2022/04/20 02:24:15;;;;;;;7.10;4.07;;;;;;;9.54;60.74;101527.69;5038485;28;20059;-66
2022/04/20 02:26:40;;;;;;;7.07;4.45;;;;;;;9.52;60.47;101525.13;5040855;28;20218;-66
2022/04/20 02:29:06;;;;;;;5.88;4.57;;;;;;;9.56;60.68;101529.31;5040168;28;20029;-66
2022/04/20 02:31:32;;;;;;;8.50;4.78;;;;;;;9.61;60.65;101519.50;5041174;28;20422;-66
2022/04/20 02:33:57;;;;;;;9.80;4.35;;;;;;;9.65;60.54;101525.47;5041217;28;20048;-66
2022/04/20 02:36:23;;;;;;;7.70;4.30;;;;;;;9.69;60.33;101531.44;5035235;28;20025;-65
2022/04/20 02:38:49;;;;;;;5.03;4.20;;;;;;;9.66;60.28;101527.19;5040532;28;20036;-66
2022/04/20 02:41:15;;;;;;;8.57;5.18;;;;;;;9.63;60.07;101527.31;5039897;28;20047;-65
2022/04/20 02:43:41;;;;;;;10.63;5.50;;;;;;;9.64;60.26;101521.13;5039152;28;20178;-66
2022/04/20 02:46:07;;;;;;;6.95;4.03;;;;;;;9.65;60.25;101514.13;5039177;28;20136;-64
2022/04/20 02:48:33;;;;;;;9.13;4.70;;;;;;;9.61;59.99;101514.25;5040418;28;20029;-64
2022/04/20 02:50:58;;;;;;;6.28;4.20;;;;;;;9.59;60.06;101521.31;5039505;28;20041;-66
2022/04/20 02:53:23;;;;;;;5.70;4.30;;;;;;;9.60;60.09;101522.19;5041809;28;20040;-65
2022/04/20 02:55:49;;;;;;;6.45;4.35;;;;;;;9.65;59.83;101520.22;5038901;28;20036;-65
2022/04/20 02:58:15;;;;;;;5.72;4.13;;;;;;;9.69;59.80;101516.56;5040129;28;20426;-65
2022/04/20 03:00:40;;;;;;;6.97;4.00;;;;;;;9.76;59.58;101518.00;5041596;28;20513;-65
2022/04/20 03:03:06;;;;;;;6.65;4.00;;;;;;;9.83;59.46;101528.25;5036831;28;20040;-67
2022/04/20 03:05:31;;;;;;;8.15;4.00;;;;;;;9.90;59.38;101520.03;5039560;28;20044;-65
2022/04/20 03:07:57;;;;;;;6.13;4.18;;;;;;;9.95;59.12;101521.63;5036329;28;20055;-65
2022/04/20 03:10:23;;;;;;;5.22;3.58;;;;;;;9.95;59.01;101522.47;5040512;28;20048;-66
2022/04/20 03:12:52;;;;;;;5.65;4.18;;;;;;;9.90;58.88;101537.59;5037722;28;20061;-65
2022/04/20 03:15:17;;;;;;;5.30;4.00;;;;;;;9.83;58.98;101528.25;5040564;28;20051;-65
2022/04/20 03:17:43;;;;;;;7.45;3.67;;;;;;;9.75;58.88;101526.81;5039541;28;20612;-65
2022/04/20 03:20:10;;;;;;;5.65;4.00;;;;;;;9.67;59.20;101523.63;5029676;28;20093;-65
2022/04/20 03:22:35;;;;;;;5.85;3.78;;;;;;;9.65;59.21;101530.72;5041388;28;20037;-65
2022/04/20 03:25:01;;;;;;;4.80;3.42;;;;;;;9.62;59.26;101520.34;5022588;28;20032;-65
2022/04/20 03:27:26;;;;;;;5.95;3.92;;;;;;;9.61;59.28;101523.88;5039353;28;20033;-66
2022/04/20 03:29:52;;;;;;;5.82;4.00;;;;;;;9.61;59.11;101518.63;5037220;28;20072;-65
2022/04/20 03:32:17;;;;;;;4.95;4.03;;;;;;;9.58;59.07;101518.78;5040375;28;20033;-66
2022/04/20 03:34:43;;;;;;;8.13;4.22;;;;;;;9.50;59.26;101512.97;5039727;28;20041;-65
2022/04/20 03:37:12;;;;;;;5.40;3.90;;;;;;;9.44;59.11;101512.31;5040368;28;20035;-66
2022/04/20 03:39:38;;;;;;;7.70;4.32;;;;;;;9.44;59.03;101512.31;5039857;28;20057;-65
2022/04/20 03:42:04;;;;;;;7.03;4.18;;;;;;;9.42;59.28;101514.16;5038012;28;20139;-65
2022/04/20 03:44:30;;;;;;;6.95;3.65;;;;;;;9.38;59.32;101506.44;5036564;28;20037;-64
2022/04/20 03:46:56;;;;;;;5.55;4.20;;;;;;;9.33;59.42;101514.50;5037174;28;20029;-65
2022/04/20 03:49:21;;;;;;;6.28;3.67;;;;;;;9.31;59.39;101516.31;5037716;28;20400;-65
2022/04/20 03:51:47;;;;;;;5.97;4.20;;;;;;;9.33;59.24;101511.88;5040611;28;20493;-65
2022/04/20 03:54:13;;;;;;;7.10;4.05;;;;;;;9.32;59.39;101511.94;5036262;28;20393;-66
2022/04/20 03:59:23;;;;;;;8.20;4.78;;;;;;;9.17;59.48;101526.53;5035433;28;20409;-66
2022/04/20 04:01:49;;;;;;;5.40;4.10;;;;;;;9.09;59.76;101522.44;5036553;28;20037;-66
2022/04/20 04:04:15;;;;;;;6.25;3.95;;;;;;;9.07;59.82;101524.28;5039640;28;20053;-65
2022/04/20 04:06:40;;;;;;;6.80;4.50;;;;;;;9.10;59.91;101529.41;5039229;28;20071;-65
2022/04/20 04:09:06;;;;;;;5.85;4.57;;;;;;;9.09;59.85;101522.44;5036441;28;20090;-66
2022/04/20 04:11:32;;;;;;;8.27;4.15;;;;;;;9.08;60.16;101525.97;5038595;28;20492;-65
2022/04/20 04:13:57;;;;;;;6.88;4.85;;;;;;;9.09;59.83;101524.19;5037558;28;20071;-66
2022/04/20 04:16:23;;;;;;;5.35;3.95;;;;;;;9.07;59.97;101524.28;5036756;28;20060;-64
2022/04/20 04:18:48;;;;;;;5.03;4.13;;;;;;;9.00;60.13;101517.53;5038506;28;20153;-65
2022/04/20 04:21:13;;;;;;;11.23;4.93;;;;;;;8.95;60.48;101519.50;5039910;28;20033;-65
2022/04/20 04:23:39;;;;;;;9.85;4.32;;;;;;;8.91;60.54;101523.16;5037308;28;20040;-65
2022/04/20 04:26:04;;;;;;;8.57;4.50;;;;;;;8.87;60.63;101514.53;5037888;28;20033;-65
2022/04/20 04:28:30;;;;;;;7.10;4.55;;;;;;;8.87;60.52;101518.91;5040272;28;20457;-66
2022/04/20 04:30:55;;;;;;;8.43;4.90;;;;;;;8.84;60.72;101518.16;5036054;28;20484;-65
2022/04/20 04:33:21;;;;;;;13.27;8.05;;;;;;;8.80;60.72;101521.78;5038539;28;20032;-65
2022/04/20 04:35:46;;;;;;;10.30;4.75;;;;;;;8.79;60.77;101525.34;5037295;28;20045;-65
2022/04/20 04:38:13;;;;;;;9.82;4.65;;;;;;;8.76;60.81;101520.19;5039455;28;21075;-65
2022/04/20 04:40:39;;;;;;;7.32;4.35;;;;;;;8.72;61.16;101523.84;5040930;28;20095;-65
2022/04/20 04:43:04;;;;;;;6.95;4.40;;;;;;;8.74;61.04;101531.66;5038310;28;20448;-66
2022/04/20 04:50:58;;;;;;;10.20;4.72;;;;;;;8.75;61.11;101530.75;5040391;28;20043;-66
2022/04/20 04:53:23;;;;;;;10.73;4.70;;;;;;;8.76;61.08;101525.44;5038786;28;20037;-65
2022/04/20 04:55:49;;;;;;;7.82;4.22;;;;;;;8.78;61.21;101533.25;5036138;28;20041;-64
2022/04/20 04:58:14;;;;;;;5.72;3.80;;;;;;;8.78;61.26;101521.00;5039969;28;20701;-65
2022/04/20 05:00:40;;;;;;;6.97;3.95;;;;;;;8.83;61.26;101529.56;5041276;28;20075;-65
2022/04/20 05:03:08;;;;;;;7.63;4.05;;;;;;;8.83;61.48;101532.19;5038803;28;20034;-65
2022/04/20 05:05:34;;;;;;;7.28;4.50;;;;;;;8.81;61.63;101522.63;5038429;28;20079;-65
2022/04/20 05:07:59;;;;;;;6.93;4.40;;;;;;;8.77;61.72;101527.16;5036609;28;20060;-65
2022/04/20 05:10:24;;;;;;;11.15;5.22;;;;;;;8.74;61.61;101527.25;5036811;28;20031;-66
2022/04/20 05:12:50;;;;;;;9.07;4.95;;;;;;;8.69;61.75;101524.81;5038070;28;20048;-65
2022/04/20 05:15:16;;;;;;;8.32;4.35;;;;;;;8.67;61.79;101518.75;5040051;28;20140;-65
2022/04/20 05:17:41;;;;;;;6.00;3.78;;;;;;;8.67;62.13;101525.78;5037900;28;20022;-64
2022/04/20 05:20:08;;;;;;;7.18;4.13;;;;;;;8.68;62.05;101522.25;5034131;28;20484;-65
2022/04/20 05:22:33;;;;;;;6.60;4.00;;;;;;;8.71;61.67;101516.03;5035617;28;20508;-64
2022/04/20 05:24:59;;;;;;;8.60;3.85;;;;;;;8.72;61.94;101521.22;5038625;28;20034;-65
2022/04/20 05:27:24;;;;;;;5.03;3.60;;;;;;;8.72;61.57;101518.59;5038608;28;20040;-65
2022/04/20 05:29:50;;;;;;;6.07;3.92;;;;;;;8.74;61.36;101516.75;5037626;28;20563;-65
2022/04/20 05:32:15;;;;;;;8.45;4.32;;;;;;;8.78;61.61;101513.13;5039999;28;20036;-65
2022/04/20 05:34:41;;;;;;;7.55;3.95;;;;;;;8.79;61.36;101517.47;5036276;28;20040;-65
2022/04/20 05:42:35;;;;;;;6.32;3.42;;;;;;;8.79;61.04;101508.72;5043033;28;20044;-65
2022/04/20 05:45:02;;;;;;;7.00;3.40;;;;;;;8.78;61.18;101512.25;5041562;28;20401;-65
2022/04/20 05:47:27;;;;;;;6.57;3.40;;;;;;;8.79;60.94;101519.22;5041343;28;20124;-65
2022/04/20 05:49:53;;;;;;;6.88;3.30;;;;;;;8.80;60.60;101521.78;5031071;28;20581;-65
2022/04/20 05:52:18;;;;;;;7.05;3.88;;;;;;;8.85;60.49;101519.00;5030238;28;20906;-65
2022/04/20 05:54:44;;;;;;;4.50;2.80;;;;;;;8.85;60.07;101514.59;5042633;28;20179;-66
2022/04/20 05:57:10;;;;;;;5.95;3.13;;;;;;;8.86;59.88;101515.47;5042973;28;20056;-64
2022/04/20 05:59:35;;;;;;;5.63;3.28;;;;;;;8.85;59.95;101514.59;5041182;28;20434;-64
2022/04/20 06:02:01;;;;;;;5.72;3.55;;;;;;;8.87;60.04;101511.03;5037935;28;20044;-66
2022/04/20 06:04:28;;;;;;;5.78;3.33;;;;;;;8.91;59.82;101513.53;5041189;28;20033;-65
2022/04/20 06:06:53;;;;;;;6.05;3.35;;;;;;;8.87;60.29;101517.16;5040786;28;20041;-65
2022/04/20 06:09:19;;;;;;;9.27;4.95;;;;;;;8.82;60.01;101509.47;5023983;28;20400;-65
2022/04/20 06:11:45;;;;;;;5.55;3.30;;;;;;;8.82;60.27;101514.72;5040291;28;20040;-65
2022/04/20 06:14:10;;;;;;;6.93;3.15;;;;;;;8.85;60.19;101509.34;5042163;28;20461;-65
2022/04/20 06:16:36;;;;;;;8.57;3.83;;;;;;;8.93;60.23;101505.56;5041453;28;20057;-65
2022/04/20 06:19:02;;;;;;;5.18;3.20;;;;;;;9.02;59.79;101507.00;5039341;28;20072;-66
2022/04/20 06:21:27;;;;;;;7.80;3.75;;;;;;;9.04;59.85;101513.88;5035916;28;20045;-65
2022/04/20 06:23:53;;;;;;;5.68;3.28;;;;;;;9.01;59.68;101506.13;5039878;28;20401;-65
2022/04/20 06:26:18;;;;;;;5.90;3.60;;;;;;;8.96;60.07;101513.34;5040552;28;20029;-66
2022/04/20 06:28:44;;;;;;;5.25;3.25;;;;;;;8.89;60.00;101514.47;5036466;28;20037;-67
2022/04/20 06:31:09;;;;;;;6.88;3.78;;;;;;;8.84;60.52;101518.16;5038429;28;20457;-65
2022/04/20 06:33:35;;;;;;;6.65;3.80;;;;;;;8.83;60.55;101511.19;5037351;28;20034;-65
2022/04/20 06:36:01;;;;;;;5.15;3.38;;;;;;;8.82;60.78;101511.22;5039010;28;20064;-64
2022/04/20 06:38:27;;;;;;;6.50;3.17;;;;;;;8.83;60.81;101507.69;5023221;28;20044;-64
2022/04/20 06:40:53;;;;;;;6.35;3.83;;;;;;;8.87;61.05;101518.91;5039813;28;20131;-65
2022/04/20 06:43:22;;;;;;;6.28;3.60;;;;;;;8.83;61.18;101511.19;5041348;28;20144;-65
2022/04/20 06:45:47;;;;;;;6.15;3.50;;;;;;;8.88;61.33;101512.75;5036353;28;20036;-71
2022/04/20 06:48:13;;;;;;;6.38;3.72;;;;;;;8.89;61.38;101519.72;5038662;28;20033;-71
2022/04/20 06:50:54;;;;;;;6.68;3.45;;;;;;;8.91;61.34;101512.66;5043625;28;20051;-73
2022/04/20 06:58:50;;;;;;;6.20;3.15;;;;;;;8.82;62.28;101521.72;5040824;28;20055;-71
2022/04/20 07:01:16;;;;;;;7.15;4.22;;;;;;;8.81;63.02;101523.50;5040874;28;20143;-70
2022/04/20 07:03:42;;;;;;;8.07;4.15;;;;;;;8.83;62.74;101531.31;5040504;28;20041;-72
2022/04/20 07:06:07;;;;;;;6.10;3.65;;;;;;;8.88;62.59;101528.50;5041681;28;20458;-67
2022/04/20 07:08:34;;;;;;;6.68;3.78;;;;;;;8.88;63.10;101531.13;5036519;28;20041;-65
2022/04/20 07:11:00;;;;;;;7.85;3.60;;;;;;;8.90;62.84;101535.44;5041781;28;20029;-66
2022/04/20 07:13:26;;;;;;;7.63;3.83;;;;;;;8.97;63.02;101534.25;5038635;28;20032;-66
2022/04/20 07:15:52;;;;;;;9.45;4.63;;;;;;;9.00;63.21;101538.53;5039737;28;20058;-67
2022/04/20 07:18:18;;;;;;;7.80;4.45;;;;;;;9.00;63.66;101543.78;5034764;28;20041;-67
2022/04/20 07:20:43;;;;;;;13.75;4.70;;;;;;;9.06;63.53;101543.56;5037827;28;20436;-67
2022/04/20 07:23:10;;;;;;;8.23;3.92;;;;;;;9.11;63.66;101541.63;5036873;28;20316;-66
2022/04/20 07:25:36;;;;;;;6.47;4.10;;;;;;;9.17;63.74;101539.66;5040279;28;20029;-66
2022/04/20 07:28:06;;;;;;;8.23;4.05;;;;;;;9.22;64.00;101542.97;5039992;28;20121;-65
2022/04/20 07:30:32;;;;;;;5.40;3.70;;;;;;;9.27;63.67;101536.63;5039594;28;20033;-65
2022/04/20 07:32:58;;;;;;;6.60;3.63;;;;;;;9.29;63.82;101534.78;5032464;28;20550;-66
2022/04/20 07:35:24;;;;;;;9.27;4.32;;;;;;;9.31;63.80;101534.72;5040390;28;20033;-66
2022/04/20 07:37:49;;;;;;;9.32;4.03;;;;;;;9.31;64.14;101532.09;5039186;28;20367;-66
2022/04/20 07:40:15;;;;;;;8.80;4.20;;;;;;;9.35;64.26;101536.31;5036007;28;20502;-67
2022/04/20 07:42:41;;;;;;;7.57;4.60;;;;;;;9.36;64.38;101540.66;5032340;28;20041;-65
2022/04/20 07:45:08;;;;;;;10.82;4.30;;;;;;;9.37;64.27;101536.25;5036994;28;20344;-65
2022/04/20 07:47:34;;;;;;;7.30;4.20;;;;;;;9.41;64.46;101530.81;5039138;28;20032;-65
2022/04/20 07:52:48;;;;;;;7.25;4.50;;;;;;;9.53;64.42;101523.34;5037898;28;20056;-66
2022/04/20 07:55:34;;;;;;;7.38;4.47;;;;;;;9.63;64.34;101524.69;5033285;28;20029;-65
2022/04/20 07:58:01;;;;;;;8.45;3.80;;;;;;;9.65;63.91;101509.69;5037770;28;20546;-66
2022/04/20 08:00:27;;;;;;;7.03;4.05;;;;;;;9.69;64.36;101502.53;5034639;28;20155;-66
2022/04/20 08:03:13;;;;;;;7.22;4.18;;;;;;;9.66;63.99;101490.38;5038275;28;20503;-66
2022/04/20 08:05:39;;;;;;;7.32;4.10;;;;;;;9.65;64.12;101493.09;5038061;28;20056;-65
2022/04/20 08:08:06;;;;;;;7.60;4.50;;;;;;;9.62;64.45;101478.28;5038473;28;20052;-67
2022/04/20 08:10:31;;;;;;;9.38;4.55;;;;;;;9.64;64.52;101473.00;5039555;28;20040;-66
2022/04/20 08:12:57;;;;;;;7.75;4.82;;;;;;;9.67;64.64;101476.34;5039350;28;20033;-66
2022/04/20 08:15:22;;;;;;;7.00;4.13;;;;;;;9.71;64.58;101470.03;5038064;28;20049;-65
2022/04/20 08:17:48;;;;;;;10.65;4.40;;;;;;;9.75;64.66;101465.50;5037951;28;20067;-65
2022/04/20 08:20:13;;;;;;;8.80;4.63;;;;;;;9.77;64.75;101467.13;5037759;28;20144;-66
2022/04/20 08:22:41;;;;;;;6.80;4.80;;;;;;;9.78;64.69;101468.00;5039026;28;20397;-66
2022/04/20 08:25:11;;;;;;;10.18;4.72;;;;;;;9.73;64.87;101470.84;5037030;28;20021;-67
2022/04/20 08:27:36;;;;;;;7.68;4.32;;;;;;;9.67;65.13;101476.34;5038928;28;20120;-66
2022/04/20 08:30:04;;;;;;;7.43;4.50;;;;;;;9.63;65.49;101482.63;5038478;28;20034;-66
2022/04/20 08:32:29;;;;;;;9.20;5.07;;;;;;;9.60;65.58;101490.66;5038270;28;20064;-68
2022/04/20 08:34:55;;;;;;;11.65;5.18;;;;;;;9.45;66.54;101490.34;5037626;28;20177;-66
2022/04/20 08:37:20;;;;;;;10.15;5.63;;;;;;;9.36;66.63;101482.03;5037336;28;20047;-66
2022/04/20 08:39:46;;;;;;;7.40;4.95;;;;;;;9.28;66.71;101479.72;5038807;28;20052;-65
2022/04/20 08:42:14;;;;;;;9.07;5.10;;;;;;;9.24;67.07;101481.56;5038334;28;20033;-65
2022/04/20 08:44:46;;;;;;;10.70;5.22;;;;;;;9.27;67.24;101473.59;5037090;28;20051;-66
2022/04/20 08:47:18;;;;;;;8.90;4.80;;;;;;;9.37;67.00;101475.84;5037131;28;20389;-66
2022/04/20 08:49:45;;;;;;;13.07;4.78;;;;;;;9.45;66.82;101474.59;5038476;28;20079;-66
2022/04/20 08:54:58;;;;;;;10.35;4.78;;;;;;;9.61;66.72;101458.19;5037522;28;20056;-66
2022/04/20 08:57:27;;;;;;;8.02;5.00;;;;;;;9.70;66.65;101470.97;5036989;28;20175;-65
2022/04/20 08:59:52;;;;;;;10.57;5.68;;;;;;;9.74;66.53;101462.03;5023976;28;20041;-65
2022/04/20 09:02:24;;;;;;;8.10;5.20;;;;;;;9.75;66.24;101450.59;5035479;28;20389;-66
2022/04/20 09:04:50;;;;;;;12.18;5.53;;;;;;;9.76;66.54;101452.28;5035410;28;20032;-66
2022/04/20 09:07:16;;;;;;;16.33;4.82;;;;;;;9.77;66.35;101448.72;5033155;28;20120;-65
2022/04/20 09:09:42;;;;;;;6.60;4.75;;;;;;;9.82;66.16;101453.81;5036007;28;20041;-67
2022/04/20 09:12:11;;;;;;;9.38;4.80;;;;;;;9.88;66.25;101444.81;5022115;28;20075;-65
2022/04/20 09:14:38;;;;;;;8.43;4.75;;;;;;;9.99;66.39;101449.56;5041908;28;20030;-65
2022/04/20 09:17:04;;;;;;;6.53;4.55;;;;;;;10.12;66.00;101444.63;5023211;28;20504;-66
2022/04/20 09:19:29;;;;;;;9.32;4.50;;;;;;;10.20;65.67;101455.69;5042104;28;20037;-66
2022/04/20 09:21:56;;;;;;;10.80;4.50;;;;;;;10.24;65.43;101449.34;5037263;28;20082;-66
2022/04/20 09:24:22;;;;;;;5.60;4.82;;;;;;;10.27;64.91;101454.47;5042497;28;20040;-69
2022/04/20 09:26:56;;;;;;;9.18;4.85;;;;;;;10.26;64.67;101447.50;5022975;28;20044;-68
2022/04/20 09:29:22;;;;;;;7.95;4.78;;;;;;;10.28;64.79;101450.91;5043079;28;20057;-66
2022/04/20 09:31:50;;;;;;;8.05;4.28;;;;;;;10.35;64.86;101449.72;5036614;28;20043;-67
2022/04/20 09:34:33;;;;;;;7.40;4.38;;;;;;;10.43;64.71;101448.53;5040576;28;20112;-66
2022/04/20 09:37:10;;;;;;;9.85;4.90;;;;;;;10.53;64.61;101444.56;5024732;28;20111;-67
2022/04/20 09:39:35;;;;;;;10.65;5.13;;;;;;;10.64;64.46;101441.44;5023987;28;20045;-65
2022/04/20 09:42:02;;;;;;;6.45;4.18;;;;;;;10.70;64.09;101435.88;5037573;28;20507;-66
2022/04/20 09:44:31;;;;;;;7.15;4.57;;;;;;;10.77;64.13;101436.44;5037093;28;20144;-65
2022/04/20 09:50:01;;;;;;;6.63;4.35;;;;;;;10.98;63.47;101424.88;5035043;28;20049;-67
2022/04/20 09:52:47;;;;;;;8.00;3.78;;;;;;;11.11;63.12;101424.28;5038452;28;20029;-66
2022/04/20 09:55:15;;;;;;;5.22;3.80;;;;;;;11.19;62.74;101422.13;5038785;28;20056;-66
2022/04/20 09:57:41;;;;;;;8.30;4.05;;;;;;;11.27;62.37;101427.84;5037924;28;20041;-66
2022/04/20 10:00:14;;;;;;;9.63;3.53;;;;;;;11.29;61.39;101415.47;5041727;28;20048;-66
2022/04/20 10:02:54;;;;;;;7.10;3.70;;;;;;;11.30;60.95;101413.69;5035745;28;20519;-66
2022/04/20 10:05:23;;;;;;;8.93;4.07;;;;;;;11.34;60.88;101406.47;5038023;28;20468;-66
2022/04/20 10:07:51;;;;;;;6.70;3.50;;;;;;;11.39;60.61;101412.38;5038690;28;20447;-66
2022/04/20 10:10:16;;;;;;;6.72;3.20;;;;;;;11.45;59.79;101406.78;5041811;28;20041;-66
2022/04/20 10:12:42;;;;;;;6.72;3.30;;;;;;;11.52;59.32;101413.47;5040414;28;20044;-74
2022/04/20 10:17:56;;;;;;;6.10;3.10;;;;;;;11.60;58.27;101394.63;5022276;28;20123;-71
2022/04/20 10:20:25;;;;;;;5.03;2.90;;;;;;;11.60;57.70;101389.34;5038245;28;20052;-70
2022/04/20 10:22:52;;;;;;;6.15;3.10;;;;;;;11.62;57.61;101386.63;5038201;28;20087;-69
2022/04/20 10:25:17;;;;;;;5.90;3.08;;;;;;;11.68;57.68;101388.94;5039863;28;20025;-67
2022/04/20 10:28:11;;;;;;;4.85;2.80;;;;;;;11.74;57.46;101372.78;5041426;28;20044;-64
2022/04/20 10:30:36;;;;;;;4.65;2.75;;;;;;;11.81;57.18;101386.50;5037086;28;20033;-66
2022/04/20 10:33:08;;;;;;;6.72;3.00;;;;;;;11.84;56.78;101381.94;5039000;28;20048;-69
2022/04/20 10:36:16;;;;;;;5.20;2.63;;;;;;;11.89;56.30;101385.16;5039447;28;20574;-66
2022/04/20 10:38:43;;;;;;;7.40;3.03;;;;;;;11.88;56.05;101375.53;5020950;28;20086;-67
2022/04/20 10:41:11;;;;;;;7.57;2.90;;;;;;;11.90;56.13;101365.78;5034702;28;20477;-64
2022/04/20 10:43:39;;;;;;;4.32;3.05;;;;;;;11.97;56.09;101373.38;5039073;28;20030;-69
2022/04/20 10:46:21;;;;;;;5.88;3.17;;;;;;;12.02;55.62;101359.03;5035751;28;20037;-67
2022/04/20 10:49:12;;;;;;;8.02;2.97;;;;;;;12.03;55.66;101365.13;5023631;28;20034;-65
2022/04/20 10:51:46;;;;;;;6.30;3.47;;;;;;;12.11;55.67;101368.22;5038240;28;20110;-67
2022/04/20 10:54:17;;;;;;;5.15;3.30;;;;;;;12.20;55.55;101357.16;5041311;28;20057;-66
2022/04/20 10:57:10;;;;;;;8.75;2.90;;;;;;;12.30;55.42;101372.50;5038891;28;20040;-66
2022/04/20 10:59:37;;;;;;;5.10;2.95;;;;;;;12.34;55.12;101352.91;5033358;28;20044;-67
2022/04/20 11:02:02;;;;;;;4.20;2.67;;;;;;;12.33;54.75;101354.72;5039447;28;20496;-67
2022/04/20 11:04:31;;;;;;;6.82;3.35;;;;;;;12.36;54.53;101343.13;5038663;28;20059;-68
2022/04/20 11:07:01;;;;;;;6.32;3.20;;;;;;;12.40;54.61;101347.31;5037947;28;20033;-67
2022/04/20 11:09:45;;;;;;;4.57;3.03;;;;;;;12.49;54.71;101336.22;5040520;28;20457;-67
2022/04/20 11:21:04;;;;;;;;;;;;;;;12.57;53.24;101324.38;5039416;28;20043;-66
2022/04/20 11:23:48;;;;;;;;;;;;;;;12.63;53.44;101316.09;5038028;28;19942;-68
2022/04/20 11:26:20;;;;;;;;;;;;;;;12.70;53.47;101298.16;5039774;28;20341;-67
2022/04/20 11:28:47;;;;;;;;;;;;;;;12.76;53.33;101310.97;5039364;28;19936;-67
2022/04/20 11:31:12;;;;;;;;;;;;;;;12.73;52.95;101327.84;5038718;28;20036;-66
2022/04/20 11:33:38;;;;;;;;;;;;;;;12.67;53.00;101301.78;5021220;28;19917;-65
2022/04/20 11:36:04;;;;;;;;;;;;;;;12.64;52.85;101294.03;5039794;28;20349;-67
2022/04/20 11:38:40;;;;;;;;;;;;;;;12.62;53.10;101288.03;5040576;28;19916;-67
2022/04/20 11:41:05;;;;;;;;;;;;;;;12.56;52.78;101305.03;5038375;28;19920;-67
2022/04/20 11:43:31;;;;;;;;;;;;;;;12.60;52.31;101305.75;5041966;28;20145;-68
2022/04/20 11:45:56;;;;;;;;;;;;;;;12.61;52.00;101308.28;5037063;28;20019;-67
2022/04/20 11:48:22;;;;;;;;;;;;;;;12.69;51.43;101297.28;5038896;28;19995;-67
2022/04/20 11:50:57;;;;;;;;;;;;;;;12.79;51.17;101297.59;5037966;28;19956;-67
2022/04/20 11:53:30;;;;;;;;;;;;;;;12.89;50.89;101287.34;5040381;28;19920;-67
2022/04/20 11:55:56;;;;;;;;;;;;;;;12.93;50.04;101283.59;5038797;28;19960;-67
2022/04/20 11:58:21;;;;;;;;;;;;;;;12.96;50.23;101280.75;5039305;28;20412;-68
2022/04/20 12:00:46;;;;;;;;;;;;;;;13.00;50.30;101290.19;5038941;28;19928;-68
2022/04/20 12:03:12;;;;;;;;;;;;;;;12.97;50.01;101282.44;5037687;28;19943;-68
2022/04/20 12:05:37;;;;;;;;;;;;;;;12.96;50.25;101275.47;5039827;28;20015;-67
2022/04/20 12:08:02;;;;;;;;;;;;;;;12.99;50.29;101274.44;5039668;28;19932;-67
2022/04/20 12:10:30;;;;;;;;;;;;;;;12.99;49.88;101258.59;5038618;28;19919;-68
2022/04/20 12:12:56;;;;;;;;;;;;;;;12.99;50.24;101270.00;5038948;28;19917;-67
2022/04/20 12:15:21;;;;;;;;;;;;;;;13.04;49.64;101259.16;5038074;28;19990;-67
2022/04/20 12:17:47;;;;;;;;;;;;;;;13.13;49.57;101255.13;5039340;28;20257;-68